createdAt,value
2023-05-15T00:00:52.105Z,12.5
2023-05-15T00:11:01.236Z,12.3
2023-05-15T00:20:56.564Z,12.2
2023-05-15T00:30:58.872Z,12.1
2023-05-15T00:41:01.401Z,12.1
2023-05-15T00:51:03.059Z,12
2023-05-15T01:01:06.257Z,11.9
2023-05-15T01:11:06.498Z,11.9
2023-05-15T01:21:08.601Z,11.9
2023-05-15T01:31:10.584Z,11.8
2023-05-15T01:41:12.592Z,11.8
2023-05-15T01:51:15.055Z,11.7
2023-05-15T02:01:16.812Z,11.5
2023-05-15T02:11:18.889Z,11.4
2023-05-15T02:31:24.421Z,11.2
2023-05-15T02:41:25.126Z,11.1
2023-05-15T02:51:27.311Z,11.1
2023-05-15T03:01:29.500Z,11
2023-05-15T03:11:31.212Z,11
2023-05-15T03:21:33.448Z,11
2023-05-15T03:31:35.713Z,11.1
2023-05-15T03:41:37.658Z,11.2
2023-05-15T03:51:40.119Z,11.4
2023-05-15T04:01:55.647Z,11.5
2023-05-15T04:11:44.801Z,11.7
2023-05-15T04:21:47.057Z,11.8
2023-05-15T04:31:49.057Z,11.9
2023-05-15T04:41:51.202Z,11.9
2023-05-15T04:51:53.099Z,12.1
2023-05-15T05:01:54.885Z,12.1
2023-05-15T05:11:57.004Z,12.3
2023-05-15T05:21:59.619Z,12.1
2023-05-15T05:32:02.242Z,12.1
2023-05-15T05:42:04.717Z,11.9
2023-05-15T05:52:07.353Z,12
2023-05-15T06:02:10.052Z,12
2023-05-15T06:12:12.511Z,11.7
2023-05-15T06:22:14.408Z,11.7
2023-05-15T06:32:16.791Z,11.8
2023-05-15T06:42:19.371Z,12
2023-05-15T07:02:23.748Z,12.2
2023-05-15T07:12:26.035Z,12.5
2023-05-15T07:22:27.845Z,12.3
2023-05-15T07:32:29.985Z,12.2
2023-05-15T07:42:32.259Z,12.5
2023-05-15T07:52:34.668Z,12.7
2023-05-15T08:02:36.751Z,13.3
2023-05-15T08:12:39.119Z,13.6
2023-05-15T08:22:41.297Z,13.6
2023-05-15T08:32:43.765Z,13.7
2023-05-15T08:42:45.982Z,13.9
2023-05-15T08:52:47.943Z,14.6
2023-05-15T09:02:50.140Z,14.8
2023-05-15T09:12:52.489Z,15.3
2023-05-15T13:23:56.211Z,21.2
2023-05-15T13:44:00.906Z,22.5
2023-05-15T14:24:09.201Z,21.3
2023-05-15T15:04:17.234Z,18.2
2023-05-15T15:34:24.528Z,18.6
2023-05-15T15:44:26.840Z,18.6
2023-05-15T15:54:28.859Z,18.5
2023-05-15T16:04:31.311Z,18.3
2023-05-15T16:14:33.815Z,18.2
2023-05-15T16:24:36.440Z,18.1
2023-05-15T16:34:38.268Z,17.9
2023-05-15T16:44:40.770Z,17.9
2023-05-15T16:54:42.569Z,18
2023-05-15T17:04:44.640Z,18
2023-05-15T17:14:47.068Z,17.7
2023-05-15T17:24:51.156Z,17.4
2023-05-15T17:34:50.906Z,17.3
2023-05-15T17:44:53.028Z,17
2023-05-15T17:54:54.691Z,16.5
2023-05-15T18:04:57.165Z,16.3
2023-05-15T18:14:59.254Z,16.1
2023-05-15T18:25:01.219Z,15.8
2023-05-15T18:35:03.237Z,15.6
2023-05-15T18:45:05.046Z,15.3
2023-05-15T18:55:07.390Z,15.2
2023-05-15T19:05:09.362Z,15.1
2023-05-15T19:15:11.730Z,15.1
2023-05-15T19:25:14.005Z,15
2023-05-15T19:35:16.520Z,15.1
2023-05-15T19:45:18.911Z,15
2023-05-15T19:55:21.470Z,14.6
2023-05-15T20:05:23.704Z,14.3
2023-05-15T20:15:25.689Z,14
2023-05-15T20:25:28.231Z,13.7
2023-05-15T20:35:30.257Z,13.6
2023-05-15T20:45:32.598Z,13.6
2023-05-15T20:55:34.797Z,13.6
2023-05-15T21:15:39.434Z,13.5
2023-05-15T21:25:41.942Z,13.3
2023-05-15T21:35:44.507Z,13.2
2023-05-15T21:45:46.959Z,13.2
2023-05-15T21:55:49.083Z,13.3
2023-05-15T22:05:51.270Z,13.2
2023-05-15T22:15:53.748Z,13.2
2023-05-15T22:25:55.582Z,13.2
2023-05-15T22:35:58.145Z,13
2023-05-15T22:45:59.925Z,12.6
2023-05-15T23:06:03.380Z,11.6
2023-05-15T23:16:05.281Z,11.3
2023-05-15T23:26:07.516Z,11.1
2023-05-15T23:56:14.397Z,10.8
